CheckWX is a tool to help pilots better visualize weather data.  It is not intended as a substitute for an official pre-flight weather briefing.

11:32:35 UTC

LTFE METAR
Milas Bodrum International Airport
Bodrum, Turkey
Current

43 mins ago

LTFE 021050Z 26015KT CAVOK 36/14 Q1004 NOSIG
Observed
Jul-2 @ 10:50 UTC
Wind
  • 260° at 15 KTS
Visibility
10,000+ meters
Flight Rules
VFR
Cloud Levels
  • Clear skies
Temperature
36°C / 97°F
Dewpoint
14°C / 57°F
Humidity
27%
Altimeter
29.65" Hg
Pressure
1003.92 hPa
Previous

43 mins ago

LTFE 021050Z 26015KT CAVOK 36/14 Q1004 NOSIG RMK RWY10 25018KT
Observed
Jul-2 @ 10:50 UTC
Wind
  • 260° at 15 KTS
Visibility
10,000+ meters
Flight Rules
VFR
Cloud Levels
  • Clear skies
Temperature
36°C / 97°F
Dewpoint
14°C / 57°F
Humidity
27%
Altimeter
29.65" Hg
Pressure
1003.92 hPa
Previous

1 hour ago

LTFE 021020Z 26015KT CAVOK 37/12 Q1004 NOSIG RMK RWY10 25015KT
Observed
Jul-2 @ 10:20 UTC
Wind
  • 260° at 15 KTS
Visibility
10,000+ meters
Flight Rules
VFR
Cloud Levels
  • Clear skies
Temperature
37°C / 99°F
Dewpoint
12°C / 54°F
Humidity
22%
Altimeter
29.65" Hg
Pressure
1003.92 hPa